KOLF/OLF METAR and TAF weather

Enter ICAO airport designator
Station Type Date Time Source
KOLF METAR 2020/07/15 08:53 UTC NOAA

KOLF 150853Z AUTO 23003KT 10SM CLR 08/06 A2996 RMK AO2 SLP143 T00780056 58002


Station Type Date Time Source
KOLF Decoded METAR 2020/07/15 08:53 UTC NOAA

WOLF POINT CLAYTON AIRPORT, MT, United States (KOLF) 48-06N 105-35W 604M
Jul 15, 2020 - 04:53 AM EDT / 2020.07.15 0853 UTC
Wind: from the SW (230 degrees) at 3 MPH (3 KT):0
Visibility: 10 mile(s):0
Sky conditions: clear
Temperature: 46.0 F (7.8 C)
Dew Point: 42.1 F (5.6 C)
Relative Humidity: 85%
Pressure (altimeter): 29.96 in. Hg (1014 hPa)
Pressure tendency: 0.01 inches (0.2 hPa) lower than three hours ago
ob: KOLF 150853Z AUTO 23003KT 10SM CLR 08/06 A2996 RMK AO2 SLP143 T00780056 58002
cycle: 9

Station Type Date Time Source
KOLF TAF 2020/07/15 06:27 UTC NOAA

TAF KOLF 150524Z 1506/1606 VRB05KT P6SM SKC
FM151800 29013KT P6SM SCT090

Example: see airport list